createdAt,value
2022-10-23T00:00:31.874Z,21.08
2022-10-23T00:01:36.493Z,20.63
2022-10-23T00:02:38.569Z,20.90
2022-10-23T00:03:41.638Z,21.00
2022-10-23T00:04:43.612Z,21.58
2022-10-23T00:05:46.617Z,20.92
2022-10-23T00:06:49.132Z,21.60
2022-10-23T00:07:52.623Z,22.17
2022-10-23T00:08:55.781Z,22.38
2022-10-23T00:09:58.781Z,21.63
2022-10-23T00:11:06.676Z,21.17
2022-10-23T00:12:09.696Z,22.02
2022-10-23T00:13:11.690Z,21.80
2022-10-23T00:14:15.577Z,22.55
2022-10-23T00:15:19.068Z,21.90
2022-10-23T00:16:22.109Z,22.15
2022-10-23T00:17:24.106Z,22.27
2022-10-23T00:18:27.220Z,21.25
2022-10-23T00:19:29.242Z,21.58
2022-10-23T00:20:32.272Z,23.33
2022-10-23T00:21:34.345Z,23.38
2022-10-23T00:22:37.494Z,22.85
2022-10-23T00:23:40.658Z,22.60
2022-10-23T00:24:43.668Z,23.52
2022-10-23T00:25:45.724Z,22.30
2022-10-23T00:26:51.717Z,22.73
2022-10-23T00:27:53.728Z,21.90
2022-10-23T00:28:56.899Z,22.60
2022-10-23T00:29:59.142Z,21.65
2022-10-23T00:31:03.244Z,21.70
2022-10-23T00:32:05.293Z,21.63
2022-10-23T00:33:08.365Z,20.55
2022-10-23T00:34:11.064Z,20.73
2022-10-23T00:35:14.161Z,20.95
2022-10-23T00:36:18.889Z,21.33
2022-10-23T00:37:22.258Z,22.02
2022-10-23T00:38:24.337Z,22.15
2022-10-23T00:39:27.373Z,21.50
2022-10-23T00:40:29.469Z,21.83
2022-10-23T00:41:33.277Z,21.10
2022-10-23T00:42:36.894Z,22.02
2022-10-23T00:43:59.949Z,22.05
2022-10-23T00:45:22.110Z,20.67
2022-10-23T00:46:24.599Z,21.05
2022-10-23T00:47:27.972Z,22.13
2022-10-23T00:48:30.322Z,20.48
2022-10-23T00:49:34.599Z,20.45
2022-10-23T00:50:37.401Z,20.92
2022-10-23T00:51:42.954Z,21.13
2022-10-23T00:52:48.435Z,22.35
2022-10-23T00:54:06.525Z,21.90
2022-10-23T00:55:16.392Z,21.90
2022-10-23T00:56:19.593Z,22.20
2022-10-23T00:57:21.819Z,22.10
2022-10-23T00:58:26.341Z,23.05
2022-10-23T00:59:29.401Z,22.70
2022-10-23T01:00:43.046Z,23.77
2022-10-23T01:01:45.307Z,22.00
2022-10-23T01:02:48.381Z,22.38
2022-10-23T01:03:51.846Z,22.67
2022-10-23T01:04:54.934Z,23.58
2022-10-23T01:06:13.718Z,22.63
2022-10-23T01:07:23.458Z,22.23
2022-10-23T01:08:36.067Z,22.35
2022-10-23T01:09:41.796Z,21.77
2022-10-23T01:10:48.816Z,22.67
2022-10-23T01:11:55.866Z,23.23
2022-10-23T01:13:05.891Z,23.13
2022-10-23T01:14:17.807Z,21.50
2022-10-23T01:15:24.816Z,21.95
2022-10-23T01:16:34.025Z,22.38
2022-10-23T01:17:44.433Z,21.00
2022-10-23T01:20:07.960Z,21.20
2022-10-23T01:21:14.335Z,21.45
2022-10-23T01:22:39.580Z,21.50
2022-10-23T01:24:19.544Z,22.05
2022-10-23T01:25:35.870Z,22.05
2022-10-23T01:26:51.501Z,21.13
2022-10-23T01:27:58.874Z,21.83
2022-10-23T01:29:06.100Z,22.35
2022-10-23T01:30:10.907Z,21.88
2022-10-23T01:31:23.299Z,21.52
2022-10-23T01:32:30.513Z,21.33
2022-10-23T01:33:42.170Z,21.40
2022-10-23T01:34:50.195Z,20.92
2022-10-23T01:35:59.015Z,20.27
2022-10-23T01:37:04.244Z,20.38
2022-10-23T01:38:13.877Z,20.88
2022-10-23T01:39:22.718Z,21.77
2022-10-23T01:40:32.030Z,21.90
2022-10-23T01:41:39.656Z,21.63
2022-10-23T01:42:47.649Z,21.35
2022-10-23T01:43:55.849Z,20.83
2022-10-23T01:45:04.073Z,21.00
2022-10-23T01:46:17.809Z,21.75
2022-10-23T01:47:28.033Z,22.08
2022-10-23T01:48:38.098Z,21.13
2022-10-23T01:49:43.671Z,21.42
2022-10-23T01:50:46.692Z,21.98
2022-10-23T01:51:55.125Z,20.95
2022-10-23T01:52:57.624Z,22.30
2022-10-23T01:54:02.221Z,21.52
2022-10-23T01:55:05.856Z,21.27
2022-10-23T01:56:13.081Z,21.83
2022-10-23T01:57:18.082Z,21.48
2022-10-23T01:58:22.903Z,21.25
2022-10-23T01:59:35.244Z,21.20
2022-10-23T02:00:42.388Z,21.17
2022-10-23T02:01:48.701Z,20.58
2022-10-23T02:02:54.157Z,20.52
2022-10-23T02:04:03.359Z,19.65
2022-10-23T02:05:11.252Z,20.92
2022-10-23T02:06:13.469Z,19.23
2022-10-23T02:07:16.562Z,19.38
2022-10-23T02:08:18.803Z,20.25
2022-10-23T02:09:21.983Z,20.77
2022-10-23T02:10:28.857Z,20.50
2022-10-23T02:11:37.261Z,21.05
2022-10-23T02:12:49.937Z,20.23
2022-10-23T02:14:00.660Z,20.40
2022-10-23T02:15:12.267Z,20.85
2022-10-23T02:16:24.249Z,20.05
2022-10-23T02:17:34.879Z,19.52
2022-10-23T02:18:47.786Z,20.40
2022-10-23T02:19:58.299Z,19.90
2022-10-23T02:21:08.721Z,19.25
2022-10-23T02:22:14.963Z,18.05
2022-10-23T02:23:22.715Z,19.55
2022-10-23T02:24:31.754Z,19.55
2022-10-23T02:25:38.588Z,20.80
2022-10-23T02:26:43.779Z,20.23
2022-10-23T02:27:51.714Z,20.27
2022-10-23T02:29:01.336Z,20.95
2022-10-23T02:30:09.534Z,19.58
2022-10-23T02:31:16.569Z,19.23
2022-10-23T02:32:22.139Z,19.50
2022-10-23T02:33:27.413Z,21.35
2022-10-23T02:34:30.605Z,20.17
2022-10-23T02:35:33.374Z,21.23
2022-10-23T02:36:45.802Z,20.83
2022-10-23T02:37:53.039Z,21.65
2022-10-23T02:38:56.058Z,21.92
2022-10-23T02:39:58.254Z,21.77
2022-10-23T02:41:11.265Z,21.65
2022-10-23T02:42:22.072Z,21.80
2022-10-23T02:43:32.534Z,21.30
2022-10-23T02:44:43.749Z,21.67
2022-10-23T02:45:55.256Z,20.85
2022-10-23T02:47:10.312Z,21.10
2022-10-23T02:48:18.580Z,20.73
2022-10-23T02:49:28.132Z,20.85
2022-10-23T02:50:39.478Z,20.77
2022-10-23T02:51:54.519Z,21.65
2022-10-23T02:53:06.407Z,20.30
2022-10-23T02:54:16.123Z,21.38
2022-10-23T02:55:28.129Z,20.33
2022-10-23T02:56:38.571Z,20.08
2022-10-23T02:57:48.039Z,20.48
2022-10-23T02:58:59.370Z,20.60
2022-10-23T03:00:07.407Z,20.30
2022-10-23T03:01:15.976Z,21.20
2022-10-23T03:02:23.192Z,21.65
2022-10-23T03:03:31.099Z,21.42
2022-10-23T03:04:33.717Z,21.48
2022-10-23T03:05:40.231Z,21.10
2022-10-23T03:06:42.972Z,20.40
2022-10-23T03:07:51.700Z,20.75
2022-10-23T03:09:00.575Z,20.63
2022-10-23T03:10:02.793Z,21.38
2022-10-23T03:11:07.137Z,21.10
2022-10-23T03:12:09.233Z,21.05
2022-10-23T03:13:13.148Z,20.23
2022-10-23T03:14:17.404Z,19.80
2022-10-23T03:15:21.276Z,21.25
2022-10-23T03:16:26.648Z,20.77
2022-10-23T03:17:31.059Z,20.40
2022-10-23T03:18:35.206Z,20.45
2022-10-23T03:19:39.232Z,20.55
2022-10-23T03:20:41.237Z,20.17
2022-10-23T03:21:44.224Z,18.88
2022-10-23T03:22:47.329Z,19.23
2022-10-23T03:23:49.324Z,19.40
2022-10-23T03:24:55.846Z,18.30
2022-10-23T03:25:57.915Z,19.38
2022-10-23T03:27:14.845Z,17.48
2022-10-23T03:28:16.929Z,19.27
2022-10-23T03:29:20.173Z,19.00
2022-10-23T03:30:22.217Z,19.02
2022-10-23T03:31:31.640Z,19.98
2022-10-23T03:32:35.321Z,18.80
2022-10-23T03:33:38.394Z,19.60
2022-10-23T03:34:43.709Z,18.42
2022-10-23T03:36:51.522Z,20.15
2022-10-23T03:37:55.538Z,20.20
2022-10-23T03:39:01.401Z,20.08
2022-10-23T03:40:04.516Z,19.63
2022-10-23T03:41:10.662Z,19.17
2022-10-23T03:42:12.719Z,19.27
2022-10-23T03:43:16.180Z,19.33
2022-10-23T03:44:18.636Z,19.92
2022-10-23T03:45:21.837Z,19.83
2022-10-23T03:46:24.427Z,18.70
2022-10-23T03:47:34.962Z,19.20
2022-10-23T03:48:38.335Z,18.08
2022-10-23T03:49:41.471Z,17.40
2022-10-23T03:50:43.469Z,17.55
2022-10-23T03:51:52.105Z,18.27
2022-10-23T03:52:56.220Z,18.10
2022-10-23T03:53:59.225Z,18.35
2022-10-23T03:55:01.315Z,19.33
2022-10-23T03:56:04.515Z,18.42
2022-10-23T03:57:08.528Z,18.08
2022-10-23T03:58:11.779Z,19.35
2022-10-23T03:59:13.838Z,19.33
2022-10-23T04:00:17.959Z,18.58
2022-10-23T04:01:21.998Z,18.45
2022-10-23T04:02:25.820Z,18.00
2022-10-23T04:03:29.316Z,18.23
2022-10-23T04:04:32.394Z,18.92
2022-10-23T04:05:35.992Z,18.75
2022-10-23T04:06:39.575Z,19.45
2022-10-23T04:07:41.785Z,19.02
2022-10-23T04:08:45.031Z,18.35
2022-10-23T04:09:52.487Z,19.55
2022-10-23T04:10:56.053Z,17.30
2022-10-23T04:12:21.936Z,19.27
2022-10-23T04:13:23.950Z,19.52
2022-10-23T04:14:27.885Z,19.30
2022-10-23T04:15:29.887Z,18.90
2022-10-23T04:16:32.966Z,17.98
2022-10-23T04:17:35.411Z,17.88
2022-10-23T04:18:41.623Z,17.88
2022-10-23T04:19:45.012Z,17.98
2022-10-23T04:20:49.050Z,18.55
2022-10-23T04:21:52.136Z,18.58
2022-10-23T04:22:54.248Z,18.00
2022-10-23T04:23:57.255Z,18.73
2022-10-23T04:25:00.311Z,18.05
2022-10-23T04:26:03.938Z,18.70
2022-10-23T04:27:08.364Z,18.17
2022-10-23T04:28:10.424Z,18.55
2022-10-23T04:29:16.127Z,18.20
2022-10-23T04:30:18.286Z,18.35
2022-10-23T04:31:22.276Z,17.70
2022-10-23T04:32:24.765Z,19.10
2022-10-23T04:33:28.040Z,17.70
2022-10-23T04:34:31.447Z,19.70
2022-10-23T04:35:34.449Z,19.38
2022-10-23T04:36:36.555Z,18.15
2022-10-23T04:37:46.776Z,18.95
2022-10-23T04:38:48.877Z,18.13
2022-10-23T04:39:51.893Z,18.55
2022-10-23T04:40:53.938Z,17.90
2022-10-23T04:41:58.428Z,18.75
2022-10-23T04:43:00.917Z,19.45
2022-10-23T04:44:08.083Z,18.85
2022-10-23T04:45:13.516Z,18.33
2022-10-23T04:46:18.112Z,18.58
2022-10-23T04:47:22.622Z,18.30
2022-10-23T04:48:34.278Z,18.92
2022-10-23T04:49:52.827Z,19.63
2022-10-23T04:51:15.811Z,19.38
2022-10-23T04:52:29.533Z,19.08
2022-10-23T04:53:58.760Z,18.80
2022-10-23T04:55:11.390Z,18.17
2022-10-23T04:56:21.413Z,17.15
2022-10-23T04:57:26.289Z,17.65
2022-10-23T04:58:35.680Z,16.58
2022-10-23T04:59:37.729Z,18.20
2022-10-23T05:00:41.128Z,16.63
2022-10-23T05:01:44.282Z,16.80
2022-10-23T05:02:47.401Z,17.27
2022-10-23T05:03:51.529Z,16.65
2022-10-23T05:04:56.054Z,16.35
2022-10-23T05:06:11.008Z,16.63
2022-10-23T05:07:15.787Z,17.35
2022-10-23T05:08:26.283Z,16.48
2022-10-23T05:09:46.542Z,16.38
2022-10-23T05:10:59.061Z,17.38
2022-10-23T05:12:01.278Z,16.80
2022-10-23T05:13:05.600Z,17.23
2022-10-23T05:14:07.712Z,18.05
2022-10-23T05:15:11.597Z,17.30
2022-10-23T05:16:25.846Z,17.42
2022-10-23T05:17:34.148Z,16.60
2022-10-23T05:18:40.865Z,15.05
2022-10-23T05:19:47.747Z,15.57
2022-10-23T05:20:54.525Z,16.90
2022-10-23T05:21:58.806Z,17.63
2022-10-23T05:23:08.824Z,19.02
2022-10-23T05:24:12.634Z,17.70
2022-10-23T05:25:14.721Z,19.23
2022-10-23T05:26:23.683Z,19.08
2022-10-23T05:27:28.356Z,18.20
2022-10-23T05:28:32.262Z,18.05
2022-10-23T05:29:34.376Z,18.33
2022-10-23T05:30:38.244Z,19.13
2022-10-23T05:31:40.523Z,18.95
2022-10-23T05:32:48.307Z,18.95
2022-10-23T05:33:50.868Z,17.73
2022-10-23T05:34:56.788Z,18.60
2022-10-23T05:36:04.166Z,18.00
2022-10-23T05:37:10.693Z,18.05
2022-10-23T05:38:14.998Z,18.15
2022-10-23T05:39:19.702Z,18.83
2022-10-23T05:40:22.694Z,18.23
2022-10-23T05:41:29.151Z,18.15
2022-10-23T05:42:35.212Z,17.42
2022-10-23T05:43:40.931Z,20.15
2022-10-23T05:45:07.867Z,18.08
2022-10-23T05:46:31.170Z,17.70
2022-10-23T05:47:56.534Z,19.30
2022-10-23T05:49:33.779Z,17.75
2022-10-23T05:50:54.013Z,17.02
2022-10-23T05:52:03.704Z,17.67
2022-10-23T05:53:21.258Z,17.30
2022-10-23T05:54:44.570Z,16.83
2022-10-23T05:56:10.840Z,15.85
2022-10-23T05:57:36.021Z,15.45
2022-10-23T05:58:42.987Z,16.38
2022-10-23T06:00:04.434Z,15.68
2022-10-23T06:01:26.913Z,15.25
2022-10-23T06:02:34.444Z,16.00
2022-10-23T06:03:47.169Z,15.02
2022-10-23T06:04:49.198Z,15.60
2022-10-23T06:05:53.189Z,16.02
2022-10-23T06:07:04.545Z,16.15
2022-10-23T06:08:07.894Z,15.05
2022-10-23T06:09:10.027Z,14.98
2022-10-23T06:10:16.498Z,14.63
2022-10-23T06:11:21.722Z,14.55
2022-10-23T06:12:39.156Z,14.40
2022-10-23T06:13:43.332Z,14.90
2022-10-23T06:14:46.572Z,15.43
2022-10-23T06:15:49.715Z,15.35
2022-10-23T06:16:58.296Z,14.30
2022-10-23T06:18:01.184Z,15.48
2022-10-23T06:19:05.322Z,14.63
2022-10-23T06:20:09.092Z,14.60
2022-10-23T06:21:18.498Z,14.07
2022-10-23T06:22:25.211Z,14.23
2022-10-23T06:23:37.615Z,13.88
2022-10-23T06:24:59.980Z,13.85
2022-10-23T06:26:03.757Z,13.65
2022-10-23T06:27:23.693Z,14.02
2022-10-23T06:28:26.443Z,13.77
2022-10-23T06:29:29.694Z,13.68
2022-10-23T06:30:32.104Z,14.52
2022-10-23T06:31:35.619Z,14.23
2022-10-23T06:32:38.716Z,13.73
2022-10-23T06:33:48.157Z,13.23
2022-10-23T06:34:51.198Z,14.32
2022-10-23T06:35:56.106Z,14.73
2022-10-23T06:36:59.346Z,13.95
2022-10-23T06:38:22.828Z,13.70
2022-10-23T06:39:32.062Z,13.82
2022-10-23T06:40:58.429Z,14.00
2022-10-23T06:42:10.206Z,13.13
2022-10-23T06:44:52.097Z,14.13
2022-10-23T06:46:12.060Z,13.68
2022-10-23T06:47:33.508Z,13.38
2022-10-23T06:48:59.595Z,12.82
2022-10-23T06:50:07.906Z,13.80
2022-10-23T06:51:14.461Z,13.98
2022-10-23T06:52:41.664Z,14.18
2022-10-23T06:53:43.968Z,14.13
2022-10-23T06:55:10.537Z,13.57
2022-10-23T06:56:13.888Z,13.57
2022-10-23T06:57:16.897Z,13.77
2022-10-23T06:58:21.504Z,13.65
2022-10-23T06:59:44.812Z,13.52
2022-10-23T07:00:46.913Z,13.02
2022-10-23T07:01:50.261Z,13.25
2022-10-23T07:02:53.594Z,13.85
2022-10-23T07:03:56.675Z,13.18
2022-10-23T07:05:01.361Z,14.10
2022-10-23T07:06:06.176Z,13.15
2022-10-23T07:07:09.464Z,13.63
2022-10-23T07:08:19.581Z,13.95
2022-10-23T07:09:27.510Z,13.27
2022-10-23T07:10:29.681Z,12.65
2022-10-23T07:11:34.404Z,12.75
2022-10-23T07:12:37.178Z,13.02
2022-10-23T07:14:03.275Z,13.18
2022-10-23T07:15:07.369Z,12.30
2022-10-23T07:16:12.021Z,13.27
2022-10-23T07:17:15.407Z,13.10
2022-10-23T07:18:19.521Z,13.38
2022-10-23T07:19:47.952Z,12.25
2022-10-23T07:20:58.111Z,13.00
2022-10-23T07:22:01.559Z,13.10
2022-10-23T07:23:16.649Z,12.25
2022-10-23T07:24:21.091Z,12.00
2022-10-23T07:25:26.272Z,12.63
2022-10-23T07:26:30.101Z,12.88
2022-10-23T07:27:36.605Z,12.27
2022-10-23T07:28:42.739Z,12.25
2022-10-23T07:29:45.047Z,12.88
2022-10-23T07:30:57.521Z,13.95
2022-10-23T07:32:00.897Z,13.30
2022-10-23T07:33:06.676Z,13.60
2022-10-23T07:34:14.684Z,13.20
2022-10-23T07:35:18.303Z,13.52
2022-10-23T07:36:30.546Z,13.90
2022-10-23T07:37:32.731Z,13.73
2022-10-23T07:38:38.269Z,13.77
2022-10-23T07:39:40.413Z,13.38
2022-10-23T07:40:45.859Z,13.82
2022-10-23T07:41:51.243Z,13.27
2022-10-23T07:42:55.006Z,13.65
2022-10-23T07:43:57.329Z,14.02
2022-10-23T07:45:00.788Z,13.35
2022-10-23T07:46:03.738Z,13.88
2022-10-23T07:47:11.436Z,13.13
2022-10-23T07:48:17.045Z,12.52
2022-10-23T07:49:35.282Z,13.68
2022-10-23T07:50:38.238Z,13.38
2022-10-23T07:51:41.393Z,13.23
2022-10-23T07:52:44.139Z,13.32
2022-10-23T07:53:49.521Z,12.85
2022-10-23T07:55:04.364Z,12.88
2022-10-23T07:56:17.134Z,12.80
2022-10-23T07:57:45.502Z,12.55
2022-10-23T07:59:00.272Z,12.70
2022-10-23T08:00:02.372Z,12.10
2022-10-23T08:01:16.358Z,12.02
2022-10-23T08:02:19.235Z,11.98
2022-10-23T08:03:22.954Z,11.80
2022-10-23T08:04:26.235Z,13.07
2022-10-23T08:05:35.108Z,11.60
2022-10-23T08:06:39.044Z,14.05
2022-10-23T08:07:42.134Z,12.27
2022-10-23T08:09:48.669Z,11.65
2022-10-23T08:10:53.779Z,11.70
2022-10-23T08:12:04.079Z,11.25
2022-10-23T08:13:07.133Z,10.77
2022-10-23T08:14:27.892Z,11.05
2022-10-23T08:15:30.906Z,10.27
2022-10-23T08:16:41.032Z,10.70
2022-10-23T08:17:52.346Z,9.88
2022-10-23T08:19:00.216Z,9.70
2022-10-23T08:20:04.366Z,10.05
2022-10-23T08:21:14.248Z,8.88
2022-10-23T08:22:16.441Z,10.45
2022-10-23T08:23:21.109Z,9.43
2022-10-23T08:24:23.879Z,9.05
2022-10-23T08:25:27.558Z,9.20
2022-10-23T08:26:30.682Z,8.48
2022-10-23T08:27:35.090Z,8.77
2022-10-23T08:28:37.851Z,8.27
2022-10-23T08:29:41.502Z,8.57
2022-10-23T08:30:43.899Z,8.45
2022-10-23T08:31:47.960Z,7.75
2022-10-23T08:33:20.586Z,7.32
2022-10-23T08:34:22.906Z,7.45
2022-10-23T08:35:28.250Z,7.68
2022-10-23T08:36:30.319Z,7.45
2022-10-23T08:37:33.494Z,7.75
2022-10-23T08:38:36.179Z,7.28
2022-10-23T08:39:41.559Z,7.53
2022-10-23T08:40:51.515Z,7.40
2022-10-23T08:41:57.405Z,7.68
2022-10-23T08:43:06.396Z,7.30
2022-10-23T08:44:19.625Z,6.93
2022-10-23T08:45:30.602Z,6.95
2022-10-23T08:47:02.505Z,7.28
2022-10-23T08:48:29.407Z,7.07
2022-10-23T08:49:54.447Z,7.18
2022-10-23T08:51:01.179Z,7.28
2022-10-23T08:52:14.350Z,7.05
2022-10-23T08:53:27.958Z,7.05
2022-10-23T08:54:39.606Z,6.18
2022-10-23T08:55:46.658Z,6.20
2022-10-23T08:56:51.764Z,6.45
2022-10-23T08:58:00.186Z,6.30
2022-10-23T08:59:15.056Z,6.53
2022-10-23T09:00:19.549Z,6.03
2022-10-23T09:01:36.161Z,5.57
2022-10-23T09:02:43.604Z,5.72
2022-10-23T09:03:45.881Z,5.88
2022-10-23T09:04:51.389Z,5.50
2022-10-23T09:06:03.493Z,5.38
2022-10-23T09:07:13.225Z,5.10
2022-10-23T09:08:27.301Z,5.53
2022-10-23T09:09:56.289Z,5.40
2022-10-23T09:11:05.429Z,5.80
2022-10-23T09:12:11.865Z,4.90
2022-10-23T09:13:31.511Z,6.63
2022-10-23T09:14:56.600Z,5.32
2022-10-23T09:16:07.558Z,5.00
2022-10-23T09:17:24.098Z,4.75
2022-10-23T09:18:26.168Z,4.90
2022-10-23T09:19:31.366Z,4.60
2022-10-23T09:20:35.521Z,4.63
2022-10-23T09:21:39.646Z,4.97
2022-10-23T09:22:43.354Z,4.22
2022-10-23T09:23:46.788Z,4.30
2022-10-23T09:24:53.608Z,4.53
2022-10-23T09:25:57.702Z,4.47
2022-10-23T09:27:00.682Z,4.30
2022-10-23T09:28:05.720Z,4.78
2022-10-23T09:29:19.251Z,5.32
2022-10-23T09:30:33.050Z,4.80
2022-10-23T09:31:35.104Z,4.55
2022-10-23T09:32:39.384Z,4.32
2022-10-23T09:33:42.095Z,4.90
2022-10-23T09:34:53.669Z,4.75
2022-10-23T09:35:58.901Z,5.25
2022-10-23T09:37:03.350Z,6.45
2022-10-23T09:38:05.425Z,5.78
2022-10-23T09:39:24.272Z,5.55
2022-10-23T09:40:33.362Z,5.82
2022-10-23T09:41:38.717Z,5.95
2022-10-23T09:42:54.607Z,6.25
2022-10-23T09:44:15.186Z,5.55
2022-10-23T09:45:22.990Z,4.65
2022-10-23T09:46:38.598Z,5.13
2022-10-23T09:47:41.890Z,5.72
2022-10-23T09:48:45.230Z,4.50
2022-10-23T09:49:48.598Z,5.10
2022-10-23T09:50:54.438Z,5.07
2022-10-23T09:52:02.154Z,5.07
2022-10-23T09:53:06.261Z,4.60
2022-10-23T09:54:16.921Z,4.03
2022-10-23T09:55:21.768Z,4.03
2022-10-23T09:56:30.931Z,4.30
2022-10-23T09:57:38.259Z,4.00
2022-10-23T09:58:53.512Z,3.78
2022-10-23T09:59:59.119Z,3.80
2022-10-23T10:01:02.848Z,3.60
2022-10-23T10:02:29.250Z,3.90
2022-10-23T10:04:05.197Z,3.60
2022-10-23T10:05:22.817Z,3.47
2022-10-23T10:06:27.869Z,3.75
2022-10-23T10:07:33.337Z,3.42
2022-10-23T10:08:45.340Z,3.70
2022-10-23T10:09:47.798Z,3.80
2022-10-23T10:10:54.808Z,3.78
2022-10-23T10:12:05.939Z,3.28
2022-10-23T10:13:24.224Z,3.80
2022-10-23T10:14:47.949Z,3.83
2022-10-23T10:15:55.354Z,3.42
2022-10-23T10:17:02.554Z,4.47
2022-10-23T10:18:17.712Z,4.07
2022-10-23T10:19:33.360Z,3.60
2022-10-23T10:20:46.088Z,3.75
2022-10-23T10:21:58.015Z,3.50
2022-10-23T10:23:07.034Z,3.80
2022-10-23T10:24:18.957Z,3.42
2022-10-23T10:25:26.463Z,3.83
2022-10-23T10:26:41.766Z,3.53
2022-10-23T10:27:52.997Z,3.45
2022-10-23T10:29:08.365Z,3.33
2022-10-23T10:30:15.937Z,3.70
2022-10-23T10:31:27.294Z,3.83
2022-10-23T10:32:39.034Z,3.95
2022-10-23T10:33:53.528Z,3.25
2022-10-23T10:35:04.092Z,3.70
2022-10-23T10:37:26.659Z,3.50
2022-10-23T10:38:42.596Z,3.70
2022-10-23T10:39:52.096Z,3.72
2022-10-23T10:41:17.826Z,3.90
2022-10-23T10:42:46.541Z,3.45
2022-10-23T10:44:00.760Z,3.45
2022-10-23T10:45:20.294Z,3.30
2022-10-23T10:46:29.184Z,3.50
2022-10-23T10:47:41.298Z,3.80
2022-10-23T10:48:52.987Z,3.33
2022-10-23T10:50:17.191Z,3.65
2022-10-23T10:51:34.456Z,3.65
2022-10-23T10:52:49.239Z,3.45
2022-10-23T10:54:31.675Z,3.30
2022-10-23T10:55:37.438Z,3.38
2022-10-23T10:56:45.504Z,3.55
2022-10-23T10:57:50.464Z,3.67
2022-10-23T10:58:57.712Z,4.55
2022-10-23T11:00:04.205Z,3.42
2022-10-23T11:01:27.207Z,3.67
2022-10-23T11:02:34.214Z,3.58
2022-10-23T11:03:42.455Z,3.33
2022-10-23T11:04:52.069Z,3.72
2022-10-23T11:07:06.113Z,3.05
2022-10-23T11:08:15.891Z,3.33
2022-10-23T11:09:21.756Z,2.70
2022-10-23T11:10:24.848Z,3.38
2022-10-23T11:11:33.072Z,2.97
2022-10-23T11:12:36.284Z,3.15
2022-10-23T11:13:40.785Z,3.40
2022-10-23T11:14:44.377Z,3.20
2022-10-23T11:15:46.913Z,3.20
2022-10-23T11:16:52.611Z,3.45
2022-10-23T11:17:58.580Z,3.50
2022-10-23T11:19:11.442Z,3.40
2022-10-23T11:20:32.738Z,3.63
2022-10-23T11:21:40.832Z,3.25
2022-10-23T11:22:50.274Z,3.53
2022-10-23T11:24:44.105Z,3.10
2022-10-23T11:26:03.256Z,3.35
2022-10-23T11:27:38.701Z,3.22
2022-10-23T11:28:58.152Z,3.40
2022-10-23T11:30:25.002Z,3.35
2022-10-23T11:31:33.809Z,3.28
2022-10-23T11:32:53.500Z,3.25
2022-10-23T11:34:25.817Z,3.70
2022-10-23T11:35:44.981Z,3.10
2022-10-23T11:36:53.794Z,3.63
2022-10-23T11:38:01.042Z,3.42
2022-10-23T11:39:16.787Z,3.05
2022-10-23T11:40:24.034Z,2.92
2022-10-23T11:41:29.633Z,3.45
2022-10-23T11:42:45.705Z,3.40
2022-10-23T11:43:51.244Z,3.50
2022-10-23T11:44:53.320Z,3.40
2022-10-23T11:45:56.760Z,3.20
2022-10-23T11:47:03.865Z,3.92
2022-10-23T11:48:20.767Z,3.22
2022-10-23T11:49:24.171Z,2.92
2022-10-23T11:50:31.040Z,3.28
2022-10-23T11:51:37.418Z,3.22
2022-10-23T11:53:12.633Z,3.05
2022-10-23T11:54:24.742Z,3.30
2022-10-23T11:55:30.291Z,3.42
2022-10-23T11:56:34.205Z,3.13
2022-10-23T11:57:36.553Z,2.65
2022-10-23T11:58:44.647Z,3.42
2022-10-23T11:59:56.194Z,2.70
2022-10-23T12:01:02.562Z,3.15
2022-10-23T12:02:24.102Z,3.25
2022-10-23T12:03:32.670Z,3.15
2022-10-23T12:04:42.293Z,2.95
2022-10-23T12:05:45.683Z,3.53
2022-10-23T12:06:53.671Z,2.95
2022-10-23T12:07:58.935Z,3.53
2022-10-23T12:09:06.977Z,3.03
2022-10-23T12:10:23.736Z,3.17
2022-10-23T12:11:44.512Z,2.90
2022-10-23T12:12:56.988Z,2.70
2022-10-23T12:13:59.106Z,2.85
2022-10-23T12:15:18.942Z,2.88
2022-10-23T12:16:22.240Z,3.13
2022-10-23T12:17:36.177Z,3.10
2022-10-23T12:18:51.264Z,2.67
2022-10-23T12:20:09.179Z,3.03
2022-10-23T12:21:19.170Z,2.72
2022-10-23T12:22:28.254Z,3.03
2022-10-23T12:23:48.381Z,3.00
2022-10-23T12:25:02.048Z,3.05
2022-10-23T12:26:26.006Z,2.72
2022-10-23T12:27:41.224Z,2.70
2022-10-23T12:28:55.432Z,2.80
2022-10-23T12:30:20.430Z,2.70
2022-10-23T12:31:38.840Z,2.80
2022-10-23T12:33:10.166Z,2.50
2022-10-23T12:34:27.499Z,2.72
2022-10-23T12:35:51.838Z,2.75
2022-10-23T12:37:15.040Z,2.40
2022-10-23T12:38:21.072Z,2.80
2022-10-23T12:39:29.053Z,2.40
2022-10-23T12:40:31.195Z,2.75
2022-10-23T12:41:35.901Z,2.88
2022-10-23T12:42:38.606Z,2.50
2022-10-23T12:43:45.103Z,2.70
2022-10-23T12:44:58.276Z,2.78
2022-10-23T12:46:06.677Z,3.10
2022-10-23T12:47:18.669Z,2.75
2022-10-23T12:48:22.983Z,3.05
2022-10-23T12:49:26.973Z,2.53
2022-10-23T12:50:32.441Z,3.10
2022-10-23T12:51:35.829Z,3.70
2022-10-23T12:52:42.378Z,3.22
2022-10-23T12:53:49.670Z,3.10
2022-10-23T12:54:52.820Z,3.20
2022-10-23T12:55:58.006Z,3.40
2022-10-23T12:57:01.194Z,3.00
2022-10-23T12:58:03.362Z,3.60
2022-10-23T12:59:15.153Z,3.05
2022-10-23T13:00:21.874Z,2.97
2022-10-23T13:01:28.356Z,3.42
2022-10-23T13:02:33.527Z,2.92
2022-10-23T13:03:37.115Z,3.38
2022-10-23T13:04:41.829Z,3.38
2022-10-23T13:05:44.582Z,3.53
2022-10-23T13:06:50.065Z,3.67
2022-10-23T13:07:53.419Z,3.67
2022-10-23T13:09:06.520Z,3.15
2022-10-23T13:10:18.427Z,3.78
2022-10-23T13:11:28.727Z,3.05
2022-10-23T13:12:36.697Z,3.38
2022-10-23T13:13:40.378Z,3.65
2022-10-23T13:14:56.072Z,3.65
2022-10-23T13:15:59.172Z,3.40
2022-10-23T13:17:04.683Z,3.28
2022-10-23T13:18:10.211Z,3.10
2022-10-23T13:19:23.655Z,3.47
2022-10-23T13:20:28.482Z,3.83
2022-10-23T13:21:32.818Z,4.05
2022-10-23T13:22:36.373Z,3.60
2022-10-23T13:23:43.522Z,3.70
2022-10-23T13:24:47.773Z,3.80
2022-10-23T13:25:55.749Z,3.72
2022-10-23T13:26:59.948Z,3.47
2022-10-23T13:28:12.242Z,3.60
2022-10-23T13:29:21.749Z,4.00
2022-10-23T13:30:32.422Z,3.80
2022-10-23T13:32:37.466Z,3.72
2022-10-23T13:33:42.143Z,3.70
2022-10-23T13:35:03.531Z,3.88
2022-10-23T13:36:22.703Z,3.78
2022-10-23T13:37:27.358Z,3.78
2022-10-23T13:38:31.481Z,3.47
2022-10-23T13:39:35.436Z,4.00
2022-10-23T13:40:38.891Z,3.75
2022-10-23T13:41:43.760Z,3.60
2022-10-23T13:42:49.601Z,3.42
2022-10-23T13:43:51.947Z,3.90
2022-10-23T13:44:55.091Z,4.03
2022-10-23T13:45:58.189Z,3.40
2022-10-23T13:47:01.318Z,3.42
2022-10-23T13:48:03.691Z,3.72
2022-10-23T13:49:06.959Z,3.53
2022-10-23T13:50:11.267Z,3.80
2022-10-23T13:51:15.618Z,3.90
2022-10-23T13:52:23.388Z,5.88
2022-10-23T13:53:25.428Z,4.53
2022-10-23T13:54:30.277Z,4.18
2022-10-23T13:55:33.554Z,3.67
2022-10-23T13:56:37.960Z,3.90
2022-10-23T13:57:40.048Z,3.90
2022-10-23T13:58:43.380Z,3.72
2022-10-23T13:59:45.443Z,3.58
2022-10-23T14:00:50.753Z,3.85
2022-10-23T14:01:53.000Z,3.63
2022-10-23T14:02:56.074Z,3.85
2022-10-23T14:03:59.449Z,3.70
2022-10-23T14:05:02.509Z,3.72
2022-10-23T14:06:10.307Z,3.20
2022-10-23T14:07:14.967Z,3.40
2022-10-23T14:08:17.106Z,3.85
2022-10-23T14:09:20.136Z,3.50
2022-10-23T14:10:25.642Z,3.53
2022-10-23T14:11:31.459Z,3.33
2022-10-23T14:12:41.978Z,3.58
2022-10-23T14:13:44.599Z,4.10
2022-10-23T14:14:52.355Z,3.72
2022-10-23T14:15:54.844Z,3.95
2022-10-23T14:16:57.857Z,4.50
2022-10-23T14:18:02.410Z,3.88
2022-10-23T14:19:08.517Z,3.72
2022-10-23T14:20:11.636Z,3.30
2022-10-23T14:21:16.620Z,3.50
2022-10-23T14:22:20.118Z,3.70
2022-10-23T14:23:22.128Z,3.20
2022-10-23T14:24:25.247Z,3.10
2022-10-23T14:25:27.388Z,3.25
2022-10-23T14:26:30.779Z,2.90
2022-10-23T14:27:32.885Z,3.70
2022-10-23T14:28:37.604Z,3.22
2022-10-23T14:29:41.948Z,3.33
2022-10-23T14:30:44.557Z,2.97
2022-10-23T14:31:47.806Z,3.40
2022-10-23T14:32:50.198Z,4.00
2022-10-23T14:33:54.918Z,3.28
2022-10-23T14:34:56.946Z,3.80
2022-10-23T14:35:59.958Z,3.22
2022-10-23T14:37:08.884Z,3.20
2022-10-23T14:38:12.316Z,2.85
2022-10-23T14:39:14.439Z,3.47
2022-10-23T14:40:17.585Z,3.50
2022-10-23T14:41:19.656Z,4.20
2022-10-23T14:42:22.834Z,3.60
2022-10-23T14:43:25.519Z,3.42
2022-10-23T14:44:30.007Z,3.30
2022-10-23T14:45:32.467Z,3.30
2022-10-23T14:46:38.279Z,3.47
2022-10-23T14:47:41.576Z,3.47
2022-10-23T14:48:46.207Z,3.28
2022-10-23T14:49:53.571Z,3.38
2022-10-23T14:50:55.593Z,3.03
2022-10-23T14:51:58.689Z,3.30
2022-10-23T14:54:05.995Z,3.60
2022-10-23T14:55:08.947Z,3.75
2022-10-23T14:56:12.217Z,3.25
2022-10-23T14:57:16.630Z,3.25
2022-10-23T14:58:23.360Z,4.35